createdAt,value
2023-01-19T00:00:12.135Z,21.07
2023-01-19T00:05:36.179Z,18.30
2023-01-19T00:10:39.246Z,30.20
2023-01-19T00:15:42.554Z,17.10
2023-01-19T00:20:46.572Z,19.10
2023-01-19T00:25:51.335Z,19.70
2023-01-19T00:30:54.292Z,22.13
2023-01-19T00:35:57.292Z,23.73
2023-01-19T00:41:00.404Z,22.97
2023-01-19T00:46:03.516Z,24.67
2023-01-19T00:51:07.212Z,26.90
2023-01-19T00:56:10.133Z,24.13
2023-01-19T01:01:13.936Z,27.00
2023-01-19T01:06:17.215Z,32.03
2023-01-19T01:11:20.060Z,42.17
2023-01-19T01:16:23.356Z,38.73
2023-01-19T01:21:26.290Z,35.67
2023-01-19T01:26:29.635Z,40.13
2023-01-19T01:31:32.873Z,30.83
2023-01-19T01:36:36.307Z,31.30
2023-01-19T01:41:39.199Z,27.27
2023-01-19T01:46:42.522Z,29.90
2023-01-19T01:51:52.444Z,32.33
2023-01-19T01:56:59.725Z,31.13
2023-01-19T02:02:24.037Z,30.47
2023-01-19T02:07:54.130Z,28.03
2023-01-19T02:13:16.147Z,29.70
2023-01-19T02:18:24.903Z,26.93
2023-01-19T02:23:37.496Z,24.63
2023-01-19T02:28:43.157Z,24.77
2023-01-19T02:33:47.160Z,25.17
2023-01-19T02:38:51.389Z,23.87
2023-01-19T02:43:54.585Z,18.47
2023-01-19T02:49:01.745Z,20.37
2023-01-19T02:54:20.386Z,21.47
2023-01-19T02:59:39.471Z,23.17
2023-01-19T03:05:18.025Z,20.10
2023-01-19T03:10:31.074Z,21.23
2023-01-19T03:15:48.069Z,17.60
2023-01-19T03:20:53.801Z,15.70
2023-01-19T03:25:59.477Z,15.40
2023-01-19T03:31:07.721Z,13.73
2023-01-19T03:36:16.590Z,15.37
2023-01-19T03:41:21.776Z,16.27
2023-01-19T03:46:25.099Z,19.80
2023-01-19T03:51:28.377Z,18.27
2023-01-19T03:56:32.091Z,16.73
2023-01-19T04:01:35.233Z,15.13
2023-01-19T04:06:38.123Z,17.10
2023-01-19T04:11:41.129Z,17.93
2023-01-19T04:16:44.113Z,16.83
2023-01-19T04:21:51.054Z,14.97
2023-01-19T04:26:54.055Z,15.07
2023-01-19T04:31:57.069Z,12.63
2023-01-19T04:37:00.382Z,13.27
2023-01-19T04:42:03.552Z,14.97
2023-01-19T04:47:06.622Z,15.33
2023-01-19T04:52:09.932Z,11.63
2023-01-19T04:57:13.158Z,15.33
2023-01-19T05:02:16.406Z,14.67
2023-01-19T05:07:19.425Z,14.90
2023-01-19T05:12:22.597Z,18.67
2023-01-19T05:17:25.580Z,36.90
2023-01-19T05:22:28.524Z,31.60
2023-01-19T05:27:31.407Z,28.77
2023-01-19T05:32:34.287Z,36.97
2023-01-19T05:37:37.394Z,49.97
2023-01-19T05:42:40.501Z,41.97
2023-01-19T05:47:43.508Z,46.37
2023-01-19T05:52:47.109Z,39.57
2023-01-19T05:57:50.318Z,29.47
2023-01-19T06:02:54.106Z,28.63
2023-01-19T06:07:57.575Z,21.03
2023-01-19T06:13:00.841Z,27.90
2023-01-19T06:18:04.224Z,28.03
2023-01-19T06:23:07.202Z,27.10
2023-01-19T06:28:10.280Z,27.67
2023-01-19T06:33:13.142Z,22.03
2023-01-19T06:38:18.332Z,33.77
2023-01-19T06:43:22.277Z,80.17
2023-01-19T06:48:25.289Z,55.43
2023-01-19T06:53:30.370Z,71.10
2023-01-19T06:58:35.826Z,44.47
2023-01-19T07:03:38.921Z,26.30
2023-01-19T07:08:42.187Z,22.47
2023-01-19T07:13:48.208Z,33.97
2023-01-19T07:18:52.318Z,26.73
2023-01-19T07:23:55.271Z,30.60
2023-01-19T07:28:58.429Z,20.50
2023-01-19T07:34:01.742Z,23.47
2023-01-19T07:39:04.967Z,23.93
2023-01-19T07:44:09.065Z,21.10
2023-01-19T07:49:12.827Z,25.63
2023-01-19T07:54:15.895Z,27.10
2023-01-19T07:59:19.041Z,23.77
2023-01-19T08:04:24.818Z,22.93
2023-01-19T08:09:27.900Z,29.40
2023-01-19T08:14:31.272Z,27.50
2023-01-19T08:19:34.361Z,28.63
2023-01-19T08:24:37.359Z,27.73
2023-01-19T08:29:40.765Z,27.07
2023-01-19T08:34:43.980Z,27.93
2023-01-19T08:39:47.761Z,28.70
2023-01-19T08:44:58.195Z,110.27
2023-01-19T08:50:01.666Z,32.57
2023-01-19T08:55:05.359Z,30.77
2023-01-19T09:00:11.412Z,33.20
2023-01-19T09:05:15.064Z,33.90
2023-01-19T09:10:18.834Z,28.00
2023-01-19T09:15:22.397Z,32.73
2023-01-19T09:20:25.925Z,33.37
2023-01-19T09:25:29.162Z,70.30
2023-01-19T09:30:33.512Z,36.40
2023-01-19T09:35:37.298Z,29.47
2023-01-19T09:40:59.672Z,49.73
2023-01-19T09:46:05.893Z,35.43
2023-01-19T09:51:13.909Z,35.47
2023-01-19T09:56:19.682Z,40.83
2023-01-19T10:01:34.834Z,34.50
2023-01-19T10:06:38.269Z,41.70
2023-01-19T10:11:52.933Z,30.80
2023-01-19T10:17:08.856Z,32.70
2023-01-19T10:22:30.790Z,35.63
2023-01-19T10:27:35.841Z,25.80
2023-01-19T10:32:39.493Z,21.63
2023-01-19T10:37:45.030Z,18.80
2023-01-19T10:42:48.859Z,13.87
2023-01-19T10:47:53.452Z,19.83
2023-01-19T10:53:01.719Z,15.83
2023-01-19T10:58:06.162Z,15.33
2023-01-19T11:03:25.723Z,11.50
2023-01-19T11:08:31.690Z,16.93
2023-01-19T11:13:35.591Z,13.20
2023-01-19T11:18:40.491Z,21.10
2023-01-19T11:23:52.002Z,15.03
2023-01-19T11:28:56.924Z,16.50
2023-01-19T11:34:05.862Z,15.67
2023-01-19T11:39:24.071Z,17.40
2023-01-19T11:44:31.741Z,18.20
2023-01-19T11:49:50.180Z,13.50
2023-01-19T11:55:17.938Z,14.83
2023-01-19T12:00:59.753Z,16.80
2023-01-19T12:06:10.140Z,14.00
2023-01-19T12:11:17.369Z,11.53
2023-01-19T12:16:22.278Z,16.37
2023-01-19T12:21:25.596Z,13.73
2023-01-19T12:26:33.291Z,15.93
2023-01-19T12:31:38.571Z,15.23
2023-01-19T12:36:42.031Z,24.83
2023-01-19T12:41:47.325Z,17.90
2023-01-19T12:47:05.469Z,16.87
2023-01-19T12:52:27.461Z,70.50
2023-01-19T12:58:03.196Z,72.93
2023-01-19T13:03:26.977Z,60.37
2023-01-19T13:08:56.629Z,22.20
2023-01-19T13:13:59.969Z,24.73
2023-01-19T13:19:06.464Z,19.63
2023-01-19T13:24:25.451Z,17.57
2023-01-19T13:29:35.328Z,32.07
2023-01-19T13:34:45.534Z,18.57
2023-01-19T13:39:50.608Z,20.63
2023-01-19T13:44:55.533Z,18.10
2023-01-19T13:49:59.067Z,17.77
2023-01-19T13:55:04.557Z,18.83
2023-01-19T14:00:17.051Z,19.93
2023-01-19T14:05:25.133Z,18.37
2023-01-19T14:10:28.909Z,22.50
2023-01-19T14:15:35.397Z,21.10
2023-01-19T14:20:39.071Z,21.83
2023-01-19T14:25:44.899Z,18.50
2023-01-19T14:30:58.855Z,21.17
2023-01-19T14:36:24.443Z,21.87
2023-01-19T14:41:34.218Z,20.53
2023-01-19T14:46:38.649Z,25.17
2023-01-19T14:51:45.459Z,27.63
2023-01-19T14:56:48.491Z,29.03
2023-01-19T15:01:51.859Z,28.67
2023-01-19T15:06:55.773Z,26.40
2023-01-19T15:11:59.454Z,28.83
2023-01-19T15:17:02.499Z,35.63
2023-01-19T15:22:13.385Z,38.00
2023-01-19T15:27:16.760Z,36.00
2023-01-19T15:32:19.857Z,37.30
2023-01-19T15:37:23.123Z,30.83
2023-01-19T15:42:26.204Z,35.07
2023-01-19T15:47:29.191Z,45.00
2023-01-19T15:52:32.179Z,45.23
2023-01-19T15:57:35.359Z,45.57
2023-01-19T16:02:38.252Z,45.73
2023-01-19T16:07:41.315Z,50.67
2023-01-19T16:12:45.547Z,60.73
2023-01-19T16:17:48.540Z,63.67
2023-01-19T16:22:53.765Z,60.47
2023-01-19T16:27:58.524Z,55.57
2023-01-19T16:33:01.396Z,57.47
2023-01-19T16:38:04.637Z,58.90
2023-01-19T16:43:07.801Z,67.07
2023-01-19T16:48:10.749Z,71.30
2023-01-19T16:53:13.882Z,66.83
2023-01-19T16:58:16.837Z,74.30
2023-01-19T17:03:20.107Z,81.10
2023-01-19T17:08:23.040Z,80.20
2023-01-19T17:13:25.853Z,77.57
2023-01-19T17:18:31.733Z,86.47
2023-01-19T17:23:36.495Z,76.27
2023-01-19T17:28:39.753Z,88.37
2023-01-19T17:33:47.625Z,84.33
2023-01-19T17:38:51.983Z,76.03
2023-01-19T17:43:55.201Z,84.37
2023-01-19T17:49:00.266Z,97.80
2023-01-19T17:54:04.348Z,108.67
2023-01-19T17:59:08.319Z,89.80
2023-01-19T18:04:11.763Z,83.20
2023-01-19T18:09:14.804Z,75.07
2023-01-19T18:14:17.826Z,73.80
2023-01-19T18:19:36.068Z,75.27
2023-01-19T18:24:39.397Z,77.50
2023-01-19T18:29:43.301Z,84.33
2023-01-19T18:34:51.236Z,128.30
2023-01-19T18:39:55.790Z,85.57
2023-01-19T18:44:59.106Z,91.63
2023-01-19T18:50:02.072Z,105.10
2023-01-19T18:55:05.462Z,86.33
2023-01-19T19:00:11.211Z,94.43
2023-01-19T19:05:14.438Z,85.07
2023-01-19T19:10:17.825Z,94.63
2023-01-19T19:15:20.994Z,92.30
2023-01-19T19:20:24.455Z,96.40
2023-01-19T19:25:27.730Z,103.07
2023-01-19T19:30:32.747Z,104.90
2023-01-19T19:35:35.966Z,104.20
2023-01-19T19:40:38.926Z,108.27
2023-01-19T19:45:42.124Z,112.13
2023-01-19T19:50:45.317Z,109.90
2023-01-19T19:55:59.744Z,132.13
2023-01-19T20:01:13.419Z,132.33
2023-01-19T20:06:21.016Z,126.60
2023-01-19T20:11:27.068Z,130.27
2023-01-19T20:16:29.987Z,118.90
2023-01-19T20:21:35.985Z,117.50
2023-01-19T20:26:42.016Z,134.13
2023-01-19T20:31:49.481Z,116.23
2023-01-19T20:36:54.077Z,108.43
2023-01-19T20:41:57.260Z,112.30
2023-01-19T20:47:00.537Z,103.70
2023-01-19T20:52:03.882Z,102.47
2023-01-19T20:57:07.264Z,107.60
2023-01-19T21:02:14.527Z,102.80
2023-01-19T21:07:17.492Z,116.70
2023-01-19T21:12:21.640Z,109.87
2023-01-19T21:17:26.231Z,112.57
2023-01-19T21:22:29.896Z,123.10
2023-01-19T21:27:32.876Z,108.43
2023-01-19T21:32:36.263Z,106.87
2023-01-19T21:37:39.443Z,92.43
2023-01-19T21:42:42.446Z,90.20
2023-01-19T21:47:46.084Z,79.57
2023-01-19T21:52:49.005Z,71.87
2023-01-19T21:57:53.219Z,75.43
2023-01-19T22:03:03.897Z,56.63
2023-01-19T22:08:07.775Z,66.47
2023-01-19T22:13:10.657Z,58.73
2023-01-19T22:18:13.590Z,54.93
2023-01-19T22:23:16.562Z,57.70
2023-01-19T22:28:19.510Z,45.27
2023-01-19T22:33:23.074Z,39.87
2023-01-19T22:38:26.233Z,43.40
2023-01-19T22:43:29.863Z,43.93
2023-01-19T22:48:33.166Z,39.00
2023-01-19T22:53:36.183Z,40.83
2023-01-19T22:58:44.747Z,42.67
2023-01-19T23:03:47.735Z,35.00
2023-01-19T23:08:51.835Z,32.17
2023-01-19T23:13:55.734Z,32.80
2023-01-19T23:18:59.206Z,34.37
2023-01-19T23:24:04.313Z,33.73
2023-01-19T23:29:13.143Z,35.87
2023-01-19T23:34:17.033Z,33.07
2023-01-19T23:39:21.984Z,32.30
2023-01-19T23:44:25.452Z,33.17
2023-01-19T23:49:28.522Z,38.73
2023-01-19T23:54:31.541Z,32.93
2023-01-19T23:59:34.994Z,32.13
